• Join FlightAware (Why Join?)
  • Login
  • US Flag 
04:40AM EDT


 

Airport Tracker/Info


-or-


 

Live Flight TrackerFlight Track Log ✈ N758MT ✈ 25-Apr-2013 ✈ KLAL - KDAB

Flight Track Log - Related Links

Times and Time Zones

All times are in EDT time to prevent confusion due to time zone crossing. See the N758MT flight status page for this flight to view local times or setup timezone preferences in your user account.

Time Position Orientation Groundspeed Altitude Reporting Facility
EDT Latitude Longitude Course Direction KTS MPH feet Rate Location/Type
08:18AM 27.9833 -82.0000 360° North 95 109 500  Level Tampa TRACON
08:18AM 28.0000 -82.0000 360° North 108 124 1,000 540 Climbing Tampa TRACON
08:19AM 28.0333 -82.0000 360° North 111 128 1,500 480 Climbing Tampa TRACON
08:20AM 28.0667 -82.0000 360° North 108 124 2,000 240 Climbing Tampa TRACON
08:21AM 28.1000 -82.0333 319° Northwest 122 140 2,000  Level Tampa TRACON
08:22AM 28.1167 -82.0500 319° Northwest 127 146 2,000 60 Level Tampa TRACON
08:23AM 28.1500 -82.0667 336° Northwest 120 138 2,200 420 Climbing Tampa TRACON
08:25AM 28.2000 -82.0833 344° North 94 108 3,400 540 Climbing Orlando TRACON
08:27AM 28.2000 -82.0500 90° East 93 107 4,000 540 Climbing Orlando TRACON
08:27AM 28.2167 -82.0167 60° Northeast 96 110 4,500 420 Climbing Orlando TRACON
08:28AM 28.2333 -82.0000 41° Northeast 97 112 4,900 180 Climbing Orlando TRACON
08:29AM 28.2333 -81.9667 90° East 110 127 4,900  Level Orlando TRACON
08:31AM 28.2500 -81.9167 69° East 119 137 5,000  Climbing Orlando TRACON
08:32AM 28.2667 -81.8833 60° Northeast 125 144 4,900  Descending Orlando TRACON
08:33AM 28.3000 -81.8667 24° Northeast 112 129 5,000  Climbing Orlando TRACON
08:33AM 28.3167 -81.8500 41° Northeast 116 133 5,000  Level Orlando TRACON
08:35AM 28.3500 -81.8167 41° Northeast 118 136 5,000  Level Orlando TRACON
08:35AM 28.3667 -81.8000 41° Northeast 119 137 5,000 -60 Level Orlando TRACON
08:36AM 28.4000 -81.7833 24° Northeast 120 138 4,900  Descending Orlando TRACON
08:37AM 28.4333 -81.7667 24° Northeast 119 137 5,000  Climbing Orlando TRACON
08:39AM 28.4667 -81.7500 24° Northeast 120 138 5,000 -60 Level Orlando TRACON
08:40AM 28.4833 -81.7167 60° Northeast 117 135 4,900 -60 Descending Orlando TRACON
08:41AM 28.5167 -81.7000 24° Northeast 120 138 4,900  Level Orlando TRACON
08:41AM 28.5333 -81.6833 41° Northeast 118 136 4,900  Level Orlando TRACON
08:42AM 28.5667 -81.6667 24° Northeast 120 138 4,900  Level Orlando TRACON
08:43AM 28.6000 -81.6333 41° Northeast 121 139 4,900  Level Orlando TRACON
08:44AM 28.6167 -81.6167 41° Northeast 123 142 4,900  Level Orlando TRACON
08:45AM 28.6500 -81.6000 24° Northeast 121 139 4,900  Level Orlando TRACON
08:47AM 28.6833 -81.5667 41° Northeast 119 137 5,000  Climbing Orlando TRACON
08:48AM 28.7000 -81.5500 41° Northeast 119 137 5,000  Level Orlando TRACON
08:48AM 28.7333 -81.5333 24° Northeast 122 140 5,000 -60 Level Orlando TRACON
08:49AM 28.7500 -81.5000 60° Northeast 123 142 4,900  Descending Orlando TRACON
08:51AM 28.8056 -81.4708 25° Northeast 121 139 5,000  Climbing Jacksonville Center
08:52AM 28.8347 -81.4469 36° Northeast 122 140 5,000  Level Jacksonville Center
08:53AM 28.8594 -81.4228 41° Northeast 123 142 5,000  Level Jacksonville Center
08:54AM 28.8883 -81.4033 31° Northeast 121 139 5,100  Climbing Jacksonville Center
08:55AM 28.9172 -81.3792 36° Northeast 121 139 5,100  Level Jacksonville Center
08:56AM 28.9464 -81.3669 20° North 124 143 5,100 -300 Level Jacksonville Center
08:57AM 28.9733 -81.3453 35° Northeast 141 162 4,500 -720 Descending Jacksonville Center
08:58AM 28.9917 -81.3069 61° Northeast 146 168 3,700 -720 Descending Jacksonville Center
08:59AM 29.0078 -81.2661 66° East 137 158 3,100 -360 Descending Jacksonville Center
09:00AM 29.0242 -81.2303 62° Northeast 125 144 3,000 -60 Descending Jacksonville Center
09:01AM 29.0381 -81.1897 69° East 121 139 3,000  Level Jacksonville Center
09:03AM 29.0522 -81.1467 69° East 123 142 3,000  Level Jacksonville Center
09:04AM 29.0622 -81.1108 72° East 124 143 3,000  Level Jacksonville Center
09:05AM 29.0719 -81.0703 75° East 121 139 3,000  Level Jacksonville Center
09:06AM 29.0819 -81.0369 71° East 121 139 3,000  Level Jacksonville Center
09:07AM 29.0939 -80.9986 70° East 123 142 3,000 -240 Level Jacksonville Center
09:08AM 29.1144 -80.9744 46° Northeast 126 145 2,600 -480 Descending Jacksonville Center
09:09AM 29.1497 -80.9692 North 136 157 2,100 -300 Descending Jacksonville Center
09:10AM 29.1836 -80.9897 332° Northwest 130 150 2,000 -300 Descending Jacksonville Center
09:11AM 29.1983 -81.0133 306° West 113 130 1,600 -840 Descending Jacksonville Center
09:12AM 29.1864 -81.0422 245° Southwest 88 101 400 -1,200 Descending Jacksonville Center
09:14AM 29.1799 -81.0581 297° West  Level Estimated
09:21AM 29.1799 -81.0581 161° South  Level Estimated
09:22AM 29.1799 -81.0581 152° Southeast  Level Estimated